Springtown's Hourly Summary for Wednesday, June 22, 2022
Hour Temp
(f)
RH
(%)
Solar Rad.
(MJ/m2)
Rainfall
(in)
Wind
(mph)
Battery
(volts)
6/22/2022 12:00 AM 75 60 0 0 1.32 0
6/22/2022 1:00 AM 75 59 0 0 1.28 0
6/22/2022 2:00 AM 79 55 0 0 3.51 0
6/22/2022 3:00 AM 78 61 0 0 2.2 0
6/22/2022 4:00 AM 77 66 0 0 2.43 0
6/22/2022 5:00 AM 76 70 0 0 0.62 0
6/22/2022 6:00 AM 74 75 0.02 0 0 0
6/22/2022 7:00 AM 79 66 0.12 0 0 0
6/22/2022 8:00 AM 85 55 0.35 0 1.62 0
6/22/2022 9:00 AM 89 44 0.53 0 2 0
6/22/2022 10:00 AM 91 39 0.69 0 1.9 0
6/22/2022 11:00 AM 94 34 0.88 0 1.18 0
6/22/2022 12:00 PM 95 32 0.93 0 4.7 0
6/22/2022 1:00 PM 94 32 0.46 0 3.88 0
6/22/2022 2:00 PM 97 29 0.81 0 2.68 0
6/22/2022 3:00 PM 96 30 0.42 0 6.51 0
6/22/2022 4:00 PM 95 32 0.22 0 6.32 0
6/22/2022 5:00 PM 97 30 0.43 0 5.03 0
6/22/2022 6:00 PM 94 33 0.09 0 3.84 0
6/22/2022 7:00 PM 94 33 0.12 0 3.57 0
6/22/2022 8:00 PM 90 38 0 0 2.05 0
6/22/2022 9:00 PM 83 50 0 0 0 0
6/22/2022 10:00 PM 78 62 0 0 0 0
6/22/2022 11:00 PM 77 62 0 0 0 0
Data Summary 85 47 6.07 0.00 2.36 0.00